Relevés horaires Bierset (Belgique)


Relevés horaires à Bierset - Dimanche 05 Août 2018
Heure UTC1 Température [°C] Vent [km/h] Hum. [%] Pres.4 [hPa] Visi. [Km] Nébu. [octa] Préc.5 [mm] Cond.
2m. Res. Ros. Dir.2 Vit. Moy. Raf.3
23:00 20.9 20.9 10.7 E 3.7 5.6 16.7 52 1020.1(0.1/3h) 45 0/8 -- --
22:00 21.5 21.5 10.9 ENE 5.6 7.4 13.0 51 1020(0.3/3h) 45 0/8 -- --
21:00 20.9 20.9 11.0 NE 7.4 9.3 13.0 53 1020.1(0.2/3h) 45 0/8 -- --
20:00 22.0 22.0 10.9 NE 5.6 7.4 9.3 49 1019.9(-0.3/3h) 45 0/8 -- --
19:00 24.1 24.1 10.9 NE 7.4 9.3 13.0 43 1019.6(-0.9/3h) 45 0/8 -- --
18:00 25.6 25.6 10.4 NE 9.3 9.3 18.5 38 1019.6(-1.3/3h) 45 0/8 0/12h
--
17:00 26.5 26.5 11.0 NE 9.3 9.3 14.8 38 1019.9(-1.5/3h) 35 0/8 -- --
16:00 26.5 26.5 10.6 NE 5.6 9.3 16.7 37 1020.3(-1.5/3h) 35 0/8 -- --
15:00 27.3 27.3 10.7 NE 7.4 9.3 14.8 35 1020.7(-1.5/3h) 35 0/8 -- --
14:00 26.0 26.0 11.3 NNE 7.4 9.3 14.8 40 1021.4(-1.3/3h) 35 0/8 -- --
13:00 25.3 25.3 11.5 NE 5.6 9.3 14.8 42 1022(-1.1/3h) 35 0/8 -- --
12:00 25.1 25.1 12.0 ENE 5.6 9.3 14.8 44 1022.4(-0.9/3h) 35 1/8 0/6h
--
11:00 24.7 24.7 13.3 NNE 7.4 7.4 13.0 49 1022.8(-0.4/3h) 35 2/8 -- --
10:00 22.0 22.0 13.7 NNE 7.4 7.4 14.8 59 1023.3(0.2/3h) 35 5/8 -- --
09:00 20.1 20.1 14.9 NNE 5.6 7.4 11.1 72 1023.6(0.7/3h) 25 6/8 -- --
08:00 18.8 18.8 15.7 N 5.6 7.4 11.1 82 1023.6(0.8/3h) 11 7/8 -- --
07:00 18.2 18.2 15.3 N 7.4 7.4 9.3 83 1023.3(0.5/3h) 11 7/8 -- --
06:00 17.5 17.5 15.5 N 5.6 7.4 11.1 88 1023.1(0.3/3h) 9 6/8 0/12h
--
05:00 16.8 16.8 15.7 N 5.6 7.4 9.3 93 1022.9(0.2/3h) 7 7/8 -- --
04:00 17.0 17.0 15.6 N 5.6 7.4 9.3 91 1022.9(0.2/3h) 9 7/8 -- --
03:00 17.0 17.0 15.5 N 7.4 7.4 11.1 91 1022.9(0.3/3h) 10 7/8 -- --
02:00 17.2 17.2 15.6 N 7.4 7.4 11.1 90 1022.7(0.3/3h) 12 7/8 -- --
01:00 17.3 17.3 15.4 NNO 5.6 7.4 11.1 89 1022.6(0.5/3h) 22 7/8 -- --

1 Coordinated Universal Time. Actuellement il est 07:00 locale et 05:00 UTC.

2 Le vent souffle depuis la direction indiquée vers la direction oposée.

3 Les rafales max. sont disponible 40 min après l'heure du relevé.

4 Pour les stations d'altitude (plus de 600m) le géopotentiel du niveau le plus proche de la pression obligatoire est indiqué.

5 Les stations disposant d'un diffuseur peuvent indiquer "trace". Cela signifie que des précipitations ont touchés le sol mais que la quantité est inférieure à 0.1 mm.

Récapitulatif de la journée
Température [°C] Vent [km/h] Ensoleillement4 [h] Precipitations totale5 [mm] Pression [Hpa]
Min1 Max.2 Moy.3 Max. Min Max.
16.7 27.3 8.1 18.5 0 h 0 min 0 1019.6 1023.6

1 Température minimale relevée entre 18:00 UTC la veille et 18:00 UTC le jour donné.

2 Température maximale relevée entre 06:00 UTC le jour donné et 06:00 UTC le lendemain.

3 Vent moyen de la journée basé sur les relevés horaires.

4 Ensoleillement en heures relevé entre 06:00 UTC la veille et 06:00 UTC le jour donné.

5 Précipitations totales tombées entre 06:00 UTC la jour donné et 06:00 UTC le lendemain.

Graphiques horaires